createdAt,value
2022-11-25T00:00:40.908Z,16.8
2022-11-25T00:04:40.589Z,17.3
2022-11-25T00:08:41.081Z,15.02
2022-11-25T00:12:40.474Z,15.73
2022-11-25T00:16:43.753Z,16.62
2022-11-25T00:20:40.485Z,16.37
2022-11-25T00:24:40.785Z,16.23
2022-11-25T00:28:40.609Z,16.85
2022-11-25T00:32:40.533Z,16.4
2022-11-25T00:36:40.533Z,15.6
2022-11-25T00:40:40.520Z,15.9
2022-11-25T00:44:41.302Z,16.7
2022-11-25T00:48:40.470Z,16.45
2022-11-25T00:52:40.540Z,16.37
2022-11-25T00:56:40.320Z,17.02
2022-11-25T01:00:40.572Z,16.3
2022-11-25T01:04:40.439Z,16.17
2022-11-25T01:08:40.575Z,16.95
2022-11-25T01:12:40.421Z,18.8
2022-11-25T01:16:40.735Z,14.43
2022-11-25T01:20:40.449Z,15.47
2022-11-25T01:24:40.781Z,14.57
2022-11-25T01:28:40.343Z,17.73
2022-11-25T01:32:39.854Z,14.77
2022-11-25T01:36:40.482Z,14.4
2022-11-25T01:40:40.469Z,15.23
2022-11-25T01:44:40.752Z,15.23
2022-11-25T01:48:40.475Z,13.97
2022-11-25T01:52:40.585Z,15.07
2022-11-25T01:56:40.454Z,16.4
2022-11-25T02:00:40.553Z,14.47
2022-11-25T02:04:40.583Z,16.73
2022-11-25T02:08:40.503Z,14.83
2022-11-25T02:12:41.240Z,15.03
2022-11-25T02:16:40.481Z,14.23
2022-11-25T02:20:40.782Z,15.6
2022-11-25T02:24:40.564Z,13.97
2022-11-25T02:28:40.705Z,13.77
2022-11-25T02:32:40.510Z,13.6
2022-11-25T02:36:40.432Z,14.27
2022-11-25T02:40:40.753Z,14.73
2022-11-25T02:44:40.711Z,15.73
2022-11-25T02:49:07.346Z,15.17
2022-11-25T02:52:40.562Z,13.87
2022-11-25T02:56:39.741Z,12.87
2022-11-25T03:00:40.500Z,13.17
2022-11-25T03:04:40.525Z,14.63
2022-11-25T03:08:40.760Z,12.83
2022-11-25T03:12:41.279Z,13.37
2022-11-25T03:16:41.348Z,13.23
2022-11-25T03:20:40.559Z,13.97
2022-11-25T03:24:40.425Z,14.5
2022-11-25T03:28:40.719Z,13.53
2022-11-25T03:32:40.445Z,14.4
2022-11-25T03:36:40.618Z,15.57
2022-11-25T03:40:40.480Z,13.67
2022-11-25T03:44:40.882Z,14.7
2022-11-25T03:48:40.305Z,14.53
2022-11-25T03:52:40.852Z,13.83
2022-11-25T03:56:40.328Z,14.5
2022-11-25T04:00:40.434Z,14.2
2022-11-25T04:04:40.434Z,14.37
2022-11-25T04:08:40.420Z,14.23
2022-11-25T04:12:40.486Z,14.93
2022-11-25T04:16:40.659Z,13.7
2022-11-25T04:20:40.461Z,13.73
2022-11-25T04:24:41.194Z,14.67
2022-11-25T04:28:40.485Z,12.53
2022-11-25T04:32:40.495Z,13.73
2022-11-25T04:36:40.617Z,12.9
2022-11-25T04:40:40.367Z,12.47
2022-11-25T04:44:40.543Z,14.57
2022-11-25T04:48:40.574Z,13.73
2022-11-25T04:52:40.521Z,13.7
2022-11-25T04:56:40.514Z,13.43
2022-11-25T05:00:39.725Z,13.73
2022-11-25T05:04:40.573Z,13.63
2022-11-25T05:08:40.624Z,15.5
2022-11-25T05:12:40.558Z,14.1
2022-11-25T05:16:39.842Z,12.9
2022-11-25T05:20:41.224Z,13.23
2022-11-25T05:24:40.549Z,13.83
2022-11-25T05:28:40.637Z,13.83
2022-11-25T05:32:40.745Z,13.47
2022-11-25T05:36:40.796Z,12.93
2022-11-25T05:40:40.606Z,14.13
2022-11-25T05:44:40.447Z,15.37
2022-11-25T05:48:40.513Z,13.9
2022-11-25T05:52:40.477Z,14.5
2022-11-25T05:56:39.752Z,15.13
2022-11-25T06:00:40.678Z,16.53
2022-11-25T06:04:40.454Z,14.2
2022-11-25T06:08:40.642Z,17.37
2022-11-25T06:12:41.153Z,15.3
2022-11-25T06:16:40.415Z,17.77
2022-11-25T06:20:40.205Z,17.43
2022-11-25T06:24:40.858Z,17.53
2022-11-25T06:28:40.458Z,17.97
2022-11-25T06:32:40.446Z,15.13
2022-11-25T06:36:40.455Z,16
2022-11-25T06:40:40.423Z,15.4
2022-11-25T06:44:41.282Z,16.07
2022-11-25T06:48:40.443Z,16.93
2022-11-25T06:52:40.496Z,16.9
2022-11-25T06:56:40.503Z,15.5
2022-11-25T07:00:41.269Z,17.27
2022-11-25T07:04:40.464Z,15.53
2022-11-25T07:08:40.480Z,15.4
2022-11-25T07:12:40.756Z,15.53
2022-11-25T07:16:41.817Z,14.23
2022-11-25T07:20:41.099Z,15.87
2022-11-25T07:24:40.468Z,16.5
2022-11-25T07:28:40.550Z,15.53
2022-11-25T07:32:40.468Z,16.43
2022-11-25T07:36:40.621Z,15.73
2022-11-25T07:40:40.045Z,16.1
2022-11-25T07:44:40.243Z,16
2022-11-25T07:48:40.553Z,15.37
2022-11-25T07:52:40.569Z,15
2022-11-25T07:56:40.460Z,15.37
2022-11-25T08:00:40.638Z,14.3
2022-11-25T08:04:40.601Z,13.57
2022-11-25T08:08:40.448Z,13.13
2022-11-25T08:12:40.524Z,13.9
2022-11-25T08:16:40.584Z,13.7
2022-11-25T08:20:40.742Z,12.2
2022-11-25T08:24:40.570Z,12.37
2022-11-25T08:28:40.701Z,11.65
2022-11-25T08:32:40.596Z,11.75
2022-11-25T08:36:45.053Z,10.73
2022-11-25T08:40:41.264Z,10.82
2022-11-25T08:44:40.557Z,10.52
2022-11-25T08:48:40.668Z,10.1
2022-11-25T08:52:39.990Z,10.82
2022-11-25T08:56:40.693Z,9.6
2022-11-25T09:00:40.636Z,9.07
2022-11-25T09:04:40.803Z,9.98
2022-11-25T09:08:40.449Z,9.6
2022-11-25T09:12:40.771Z,9.55
2022-11-25T09:16:40.646Z,8.13
2022-11-25T09:20:40.850Z,7.6
2022-11-25T09:24:40.552Z,7.82
2022-11-25T09:28:40.788Z,7.93
2022-11-25T09:32:40.584Z,6.32
2022-11-25T09:36:40.644Z,6.78
2022-11-25T09:40:40.568Z,6.47
2022-11-25T09:44:40.901Z,6
2022-11-25T09:48:40.522Z,6.5
2022-11-25T09:52:40.736Z,5.6
2022-11-25T09:56:40.488Z,5.9
2022-11-25T10:00:39.421Z,4.82
2022-11-25T10:04:40.509Z,4.25
2022-11-25T10:08:40.534Z,5.3
2022-11-25T10:12:40.494Z,3.42
2022-11-25T10:16:40.356Z,3.97
2022-11-25T10:20:41.028Z,4.1
2022-11-25T10:24:41.477Z,4
2022-11-25T10:28:40.504Z,4.5
2022-11-25T10:32:40.836Z,3.97
2022-11-25T10:36:40.606Z,4.12
2022-11-25T10:40:40.472Z,3.85
2022-11-25T10:44:41.011Z,3.47
2022-11-25T10:48:44.222Z,2.7
2022-11-25T10:52:40.846Z,2.97
2022-11-25T10:56:40.045Z,3.58
2022-11-25T11:00:41.093Z,2.87
2022-11-25T11:04:40.528Z,3.28
2022-11-25T11:08:40.699Z,2.9
2022-11-25T11:12:40.520Z,2.53
2022-11-25T11:16:40.335Z,3.05
2022-11-25T11:20:40.514Z,2.72
2022-11-25T11:24:41.074Z,2.8
2022-11-25T11:28:40.247Z,2.72
2022-11-25T11:32:40.665Z,2.6
2022-11-25T11:36:40.469Z,3.6
2022-11-25T11:40:40.553Z,2.78
2022-11-25T11:44:40.590Z,2.28
2022-11-25T11:48:40.629Z,2.3
2022-11-25T11:52:40.407Z,2.78
2022-11-25T11:56:40.777Z,3.62
2022-11-25T12:00:40.563Z,1.92
2022-11-25T12:04:41.154Z,2.75
2022-11-25T12:08:40.908Z,2.22
2022-11-25T12:12:40.495Z,2.12
2022-11-25T12:16:40.726Z,2.2
2022-11-25T12:20:40.502Z,2.1
2022-11-25T12:24:40.453Z,2.17
2022-11-25T12:28:40.429Z,1.98
2022-11-25T12:32:40.677Z,1.98
2022-11-25T12:36:40.614Z,1.75
2022-11-25T12:40:40.731Z,2.22
2022-11-25T12:44:40.548Z,2.53
2022-11-25T12:48:40.498Z,2.47
2022-11-25T12:52:40.544Z,1.98
2022-11-25T12:56:40.266Z,2.53
2022-11-25T13:00:42.833Z,1.8
2022-11-25T13:04:40.445Z,2.05
2022-11-25T13:08:40.624Z,1.95
2022-11-25T13:12:40.802Z,6.9
2022-11-25T13:16:40.950Z,2.3
2022-11-25T13:20:40.673Z,3.6
2022-11-25T13:24:40.325Z,4.2
2022-11-25T13:28:40.433Z,2.7
2022-11-25T13:32:40.766Z,3.03
2022-11-25T13:36:40.347Z,3
2022-11-25T13:40:40.862Z,2.87
2022-11-25T13:44:40.550Z,2.37
2022-11-25T13:48:40.452Z,2.28
2022-11-25T13:52:41.137Z,2.6
2022-11-25T13:56:40.429Z,4.25
2022-11-25T14:00:41.013Z,3.87
2022-11-25T14:04:40.913Z,3.83
2022-11-25T14:08:40.519Z,3.4
2022-11-25T14:12:39.560Z,4.15
2022-11-25T14:16:40.740Z,3.58
2022-11-25T14:20:40.319Z,4.85
2022-11-25T14:24:40.625Z,5.85
2022-11-25T14:28:40.444Z,4.3
2022-11-25T14:32:40.316Z,3.8
2022-11-25T14:36:40.525Z,4.37
2022-11-25T14:40:40.974Z,4.2
2022-11-25T14:44:40.438Z,4.1
2022-11-25T14:48:40.708Z,4.15
2022-11-25T14:52:40.609Z,3.25
2022-11-25T14:56:40.620Z,3.55
2022-11-25T15:00:40.561Z,3.78
2022-11-25T15:04:40.523Z,3.4
2022-11-25T15:08:40.887Z,6.25
2022-11-25T15:12:46.344Z,4.85
2022-11-25T15:16:40.467Z,5.72
2022-11-25T15:20:40.456Z,5.4
2022-11-25T15:24:40.590Z,5.73
2022-11-25T15:28:40.646Z,5.12
2022-11-25T15:32:41.211Z,5.4
2022-11-25T15:36:40.478Z,5.7
2022-11-25T15:40:40.568Z,5.97
2022-11-25T15:44:40.448Z,6.1
2022-11-25T15:48:40.348Z,4.9
2022-11-25T15:52:40.507Z,5.68
2022-11-25T15:56:40.578Z,6.47
2022-11-25T16:00:41.096Z,6.2
2022-11-25T16:04:40.977Z,6.82
2022-11-25T16:08:40.556Z,6.62
2022-11-25T16:12:39.929Z,6.07
2022-11-25T16:16:40.445Z,6.5
2022-11-25T16:20:40.845Z,6.05
2022-11-25T16:24:40.517Z,6.05
2022-11-25T16:28:40.554Z,5.37
2022-11-25T16:32:40.583Z,5.62
2022-11-25T16:36:40.593Z,8.05
2022-11-25T16:40:40.813Z,8.25
2022-11-25T16:44:41.052Z,9.02
2022-11-25T16:48:40.474Z,8.57
2022-11-25T16:52:40.190Z,8.35
2022-11-25T16:56:40.402Z,7.28
2022-11-25T17:00:40.673Z,7.03
2022-11-25T17:04:40.536Z,6.72
2022-11-25T17:08:40.461Z,7
2022-11-25T17:12:40.596Z,8.77
2022-11-25T17:16:40.657Z,7.15
2022-11-25T17:20:40.406Z,6.65
2022-11-25T17:24:40.605Z,7.5
2022-11-25T17:28:40.541Z,7.18
2022-11-25T17:32:40.696Z,7.32
2022-11-25T17:36:40.530Z,8.43
2022-11-25T17:40:39.772Z,6.87
2022-11-25T17:44:40.874Z,6.22
2022-11-25T17:48:40.542Z,7.15
2022-11-25T17:52:40.854Z,6.47
2022-11-25T17:56:39.853Z,5.3
2022-11-25T18:00:41.170Z,5.4
2022-11-25T18:04:41.034Z,4.7
2022-11-25T18:08:40.907Z,6.85
2022-11-25T18:12:40.512Z,5.5
2022-11-25T18:16:40.607Z,5.72
2022-11-25T18:20:40.626Z,4.62
2022-11-25T18:24:40.654Z,6.18
2022-11-25T18:28:39.404Z,5.03
2022-11-25T18:32:40.569Z,6.4
2022-11-25T18:36:40.341Z,6.4
2022-11-25T18:40:40.674Z,6.03
2022-11-25T18:44:40.778Z,6.2
2022-11-25T18:48:40.527Z,6.43
2022-11-25T18:52:40.563Z,7
2022-11-25T18:56:40.524Z,5.93
2022-11-25T19:00:40.684Z,5.9
2022-11-25T19:04:40.505Z,5.78
2022-11-25T19:08:41.009Z,7.03
2022-11-25T19:12:40.777Z,5.55
2022-11-25T19:16:40.497Z,6.45
2022-11-25T19:20:40.243Z,6.93
2022-11-25T19:24:41.190Z,7
2022-11-25T19:28:40.406Z,6.68
2022-11-25T19:32:40.726Z,7.85
2022-11-25T19:36:41.289Z,7.18
2022-11-25T19:40:40.659Z,7.4
2022-11-25T19:44:40.502Z,8.23
2022-11-25T19:48:40.898Z,8.48
2022-11-25T19:52:40.792Z,8.75
2022-11-25T19:56:39.889Z,8.35
2022-11-25T20:00:41.015Z,8.9
2022-11-25T20:04:41.281Z,9.57
2022-11-25T20:08:40.875Z,10.27
2022-11-25T20:12:40.383Z,11.68
2022-11-25T20:16:40.529Z,10.93
2022-11-25T20:20:40.511Z,9.85
2022-11-25T20:24:39.996Z,10.73
2022-11-25T20:28:40.437Z,11.98
2022-11-25T20:32:40.504Z,13.13
2022-11-25T20:36:40.676Z,13.77
2022-11-25T20:40:40.273Z,13.25
2022-11-25T20:44:40.521Z,12.88
2022-11-25T20:48:40.978Z,11.63
2022-11-25T20:52:40.601Z,12.63
2022-11-25T20:56:40.452Z,12.52
2022-11-25T21:00:40.687Z,12.8
2022-11-25T21:04:40.898Z,14.75
2022-11-25T21:08:40.433Z,16.25
2022-11-25T21:12:40.509Z,13.4
2022-11-25T21:16:40.577Z,14.38
2022-11-25T21:20:40.549Z,15.73
2022-11-25T21:24:40.853Z,15.02
2022-11-25T21:28:40.476Z,14.2
2022-11-25T21:32:40.553Z,13.62
2022-11-25T21:36:40.502Z,14.1
2022-11-25T21:40:40.593Z,13.8
2022-11-25T21:44:40.646Z,14.02
2022-11-25T21:48:40.417Z,14.87
2022-11-25T21:52:40.518Z,14.57
2022-11-25T21:56:40.559Z,13.7
2022-11-25T22:00:40.681Z,13.85
2022-11-25T22:04:40.506Z,12.73
2022-11-25T22:08:40.511Z,12.8
2022-11-25T22:12:41.529Z,13.98
2022-11-25T22:16:40.413Z,11.6
2022-11-25T22:20:40.449Z,15.03
2022-11-25T22:24:40.700Z,13.23
2022-11-25T22:28:40.421Z,12.23
2022-11-25T22:32:40.562Z,12.9
2022-11-25T22:36:40.584Z,13.73
2022-11-25T22:40:40.670Z,12.55
2022-11-25T22:44:40.803Z,13.68
2022-11-25T22:48:40.264Z,14.52
2022-11-25T22:52:41.239Z,12.85
2022-11-25T22:56:40.527Z,13.8
2022-11-25T23:00:40.352Z,13.98
2022-11-25T23:04:40.494Z,13.77
2022-11-25T23:08:40.615Z,14.25
2022-11-25T23:12:40.528Z,14.43
2022-11-25T23:16:40.343Z,14.25
2022-11-25T23:20:40.627Z,13.8
2022-11-25T23:24:40.548Z,15.77
2022-11-25T23:28:40.567Z,13.8
2022-11-25T23:32:41.038Z,15.48
2022-11-25T23:36:40.667Z,15.63
2022-11-25T23:40:40.286Z,14.55
2022-11-25T23:44:40.499Z,16.92
2022-11-25T23:48:40.433Z,15.73
2022-11-25T23:52:41.106Z,15.13
2022-11-25T23:56:40.733Z,14.98
